PWSweather.com
Personal Weather Stations
Station Observations
IMAZOWIE6
WarszawaPL

WarszawaPL

Lat: 52.27957, Lon: 21.05489

Elevation: 100

Station Type: WS1080

http://stacjapogody.waw.pl/

High Low Average
Temperature 30.2°F-1.0°C 26.8°F-2.9°C 27.9°F-2.3°C
Dew Point 13.6°F-10.2°C 8.5°F-13.1°C 11.2°F-11.6°C
Winds 2.8 mph 4.5 kmh Calm Calm 1.0 mph N1.6 kmh N
Wind Gusts 6.2 mph10.0 kmh -- 3.0 mph4.8 kmh
Humidity 57% 41% 50%
Pressure 29.50 in999.0 mb 29.39 in995.3 mb -
Precipitation 0.00 in0.0 mm - -
Hour Temp Dew Point Humidity Winds Wind Gusts Pressure Precip Precip Rate Daily Precip Total
12:06 AM 30.2°F-1.0°C 9.1°F-12.7°C 41% Calm Calm -- 29.50 in999.0 mb 0.00 in0.0 mm 0.00 in0.0 mm 0.00 in0.0 mm
12:21 AM 30.2°F-1.0°C 9.1°F-12.7°C 41% Calm Calm 2.0 mph3.2 kmh 29.50 in999.0 mb 0.00 in0.0 mm 0.00 in0.0 mm 0.00 in0.0 mm
12:36 AM 30.2°F-1.0°C 9.1°F-12.7°C 41% Calm Calm 0.6 mph1.0 kmh 29.50 in999.0 mb 0.00 in0.0 mm 0.00 in0.0 mm 0.00 in0.0 mm
12:51 AM 30.0°F-1.1°C 8.9°F-12.8°C 41% Calm Calm 0.6 mph1.0 kmh 29.50 in999.0 mb 0.00 in0.0 mm 0.00 in0.0 mm 0.00 in0.0 mm
01:06 AM 29.8°F-1.2°C 8.8°F-12.9°C 41% Calm Calm 0.6 mph1.0 kmh 29.49 in998.6 mb 0.00 in0.0 mm 0.00 in0.0 mm 0.00 in0.0 mm
01:21 AM 29.8°F-1.2°C 8.8°F-12.9°C 41% Calm Calm 0.6 mph1.0 kmh 29.50 in999.0 mb 0.00 in0.0 mm 0.00 in0.0 mm 0.00 in0.0 mm
01:36 AM 29.7°F-1.3°C 8.6°F-13.0°C 41% Calm Calm 0.6 mph1.0 kmh 29.50 in999.0 mb 0.00 in0.0 mm 0.00 in0.0 mm 0.00 in0.0 mm
01:51 AM 29.5°F-1.4°C 8.5°F-13.1°C 41% Calm Calm -- 29.49 in998.6 mb 0.00 in0.0 mm 0.00 in0.0 mm 0.00 in0.0 mm
02:06 AM 29.5°F-1.4°C 9.0°F-12.8°C 42% Calm Calm 1.4 mph2.3 kmh 29.49 in998.6 mb 0.00 in0.0 mm 0.00 in0.0 mm 0.00 in0.0 mm
02:21 AM 29.1°F-1.6°C 8.7°F-12.9°C 42% 0.6 mph N1.0 kmh N 2.0 mph3.2 kmh 29.49 in998.6 mb 0.00 in0.0 mm 0.00 in0.0 mm 0.00 in0.0 mm
02:36 AM 28.9°F-1.7°C 9.0°F-12.8°C 43% Calm Calm 2.0 mph3.2 kmh 29.49 in998.6 mb 0.00 in0.0 mm 0.00 in0.0 mm 0.00 in0.0 mm
02:51 AM 28.9°F-1.7°C 9.0°F-12.8°C 43% Calm Calm 4.0 mph6.4 kmh 29.48 in998.3 mb 0.00 in0.0 mm 0.00 in0.0 mm 0.00 in0.0 mm
03:06 AM 28.6°F-1.9°C 9.2°F-12.7°C 44% Calm Calm 1.4 mph2.3 kmh 29.48 in998.3 mb 0.00 in0.0 mm 0.00 in0.0 mm 0.00 in0.0 mm
03:21 AM 28.4°F-2.0°C 9.1°F-12.7°C 44% 1.4 mph N2.3 kmh N 4.8 mph7.7 kmh 29.48 in998.3 mb 0.00 in0.0 mm 0.00 in0.0 mm 0.00 in0.0 mm
03:36 AM 28.0°F-2.2°C 9.2°F-12.7°C 45% 0.6 mph N1.0 kmh N 2.8 mph4.5 kmh 29.49 in998.6 mb 0.00 in0.0 mm 0.00 in0.0 mm 0.00 in0.0 mm
03:51 AM 28.0°F-2.2°C 9.2°F-12.7°C 45% Calm Calm 3.4 mph5.5 kmh 29.48 in998.3 mb 0.00 in0.0 mm 0.00 in0.0 mm 0.00 in0.0 mm
04:06 AM 27.9°F-2.3°C 9.1°F-12.7°C 45% 0.6 mph N1.0 kmh N 3.4 mph5.5 kmh 29.48 in998.3 mb 0.00 in0.0 mm 0.00 in0.0 mm 0.00 in0.0 mm
04:21 AM 28.0°F-2.2°C 9.7°F-12.4°C 46% Calm Calm 0.6 mph1.0 kmh 29.47 in998.0 mb 0.00 in0.0 mm 0.00 in0.0 mm 0.00 in0.0 mm
04:36 AM 28.2°F-2.1°C 9.9°F-12.3°C 46% Calm Calm -- 29.47 in998.0 mb 0.00 in0.0 mm 0.00 in0.0 mm 0.00 in0.0 mm
04:51 AM 28.2°F-2.1°C 10.4°F-12.0°C 47% 1.4 mph N2.3 kmh N 4.0 mph6.4 kmh 29.47 in998.0 mb 0.00 in0.0 mm 0.00 in0.0 mm 0.00 in0.0 mm
05:06 AM 28.2°F-2.1°C 10.8°F-11.8°C 48% 0.6 mph N1.0 kmh N 2.8 mph4.5 kmh 29.48 in998.3 mb 0.00 in0.0 mm 0.00 in0.0 mm 0.00 in0.0 mm
05:21 AM 28.4°F-2.0°C 11.5°F-11.4°C 49% Calm Calm 2.0 mph3.2 kmh 29.47 in998.0 mb 0.00 in0.0 mm 0.00 in0.0 mm 0.00 in0.0 mm
05:36 AM 28.2°F-2.1°C 11.8°F-11.2°C 50% 0.6 mph N1.0 kmh N 4.0 mph6.4 kmh 29.47 in998.0 mb 0.00 in0.0 mm 0.00 in0.0 mm 0.00 in0.0 mm
05:51 AM 28.2°F-2.1°C 12.2°F-11.0°C 51% Calm Calm 1.4 mph2.3 kmh 29.47 in998.0 mb 0.00 in0.0 mm 0.00 in0.0 mm 0.00 in0.0 mm
06:06 AM 28.2°F-2.1°C 12.2°F-11.0°C 51% 0.6 mph N1.0 kmh N 2.0 mph3.2 kmh 29.47 in998.0 mb 0.00 in0.0 mm 0.00 in0.0 mm 0.00 in0.0 mm
06:21 AM 28.0°F-2.2°C 12.5°F-10.8°C 52% 2.0 mph N3.2 kmh N 4.0 mph6.4 kmh 29.48 in998.3 mb 0.00 in0.0 mm 0.00 in0.0 mm 0.00 in0.0 mm
06:36 AM 28.2°F-2.1°C 13.1°F-10.5°C 53% 0.6 mph N1.0 kmh N 2.8 mph4.5 kmh 29.48 in998.3 mb 0.00 in0.0 mm 0.00 in0.0 mm 0.00 in0.0 mm
06:51 AM 28.2°F-2.1°C 13.1°F-10.5°C 53% 0.6 mph N1.0 kmh N 3.4 mph5.5 kmh 29.48 in998.3 mb 0.00 in0.0 mm 0.00 in0.0 mm 0.00 in0.0 mm
07:06 AM 28.2°F-2.1°C 13.5°F-10.3°C 54% Calm Calm 1.4 mph2.3 kmh 29.48 in998.3 mb 0.00 in0.0 mm 0.00 in0.0 mm 0.00 in0.0 mm
07:21 AM 28.2°F-2.1°C 13.5°F-10.3°C 54% Calm Calm 1.4 mph2.3 kmh 29.49 in998.6 mb 0.00 in0.0 mm 0.00 in0.0 mm 0.00 in0.0 mm
07:36 AM 28.0°F-2.2°C 13.4°F-10.3°C 54% 2.0 mph N3.2 kmh N 4.8 mph7.7 kmh 29.48 in998.3 mb 0.00 in0.0 mm 0.00 in0.0 mm 0.00 in0.0 mm
07:51 AM 27.9°F-2.3°C 13.2°F-10.4°C 54% Calm Calm 2.0 mph3.2 kmh 29.49 in998.6 mb 0.00 in0.0 mm 0.00 in0.0 mm 0.00 in0.0 mm
08:06 AM 27.7°F-2.4°C 13.4°F-10.3°C 55% 0.6 mph N1.0 kmh N 3.4 mph5.5 kmh 29.49 in998.6 mb 0.00 in0.0 mm 0.00 in0.0 mm 0.00 in0.0 mm
08:21 AM 27.9°F-2.3°C 13.6°F-10.2°C 55% 0.6 mph N1.0 kmh N 2.0 mph3.2 kmh 29.49 in998.6 mb 0.00 in0.0 mm 0.00 in0.0 mm 0.00 in0.0 mm
08:36 AM 27.9°F-2.3°C 13.6°F-10.2°C 55% 0.6 mph N1.0 kmh N 2.0 mph3.2 kmh 29.49 in998.6 mb 0.00 in0.0 mm 0.00 in0.0 mm 0.00 in0.0 mm
08:51 AM 27.7°F-2.4°C 13.4°F-10.3°C 55% 1.4 mph N2.3 kmh N 5.4 mph8.7 kmh 29.49 in998.6 mb 0.00 in0.0 mm 0.00 in0.0 mm 0.00 in0.0 mm
09:06 AM 27.5°F-2.5°C 13.3°F-10.4°C 55% 0.6 mph N1.0 kmh N 2.0 mph3.2 kmh 29.49 in998.6 mb 0.00 in0.0 mm 0.00 in0.0 mm 0.00 in0.0 mm
09:21 AM 27.7°F-2.4°C 13.4°F-10.3°C 55% 0.6 mph N1.0 kmh N 3.4 mph5.5 kmh 29.49 in998.6 mb 0.00 in0.0 mm 0.00 in0.0 mm 0.00 in0.0 mm
09:36 AM 27.9°F-2.3°C 13.6°F-10.2°C 55% 0.6 mph N1.0 kmh N 2.0 mph3.2 kmh 29.49 in998.6 mb 0.00 in0.0 mm 0.00 in0.0 mm 0.00 in0.0 mm
09:51 AM 27.9°F-2.3°C 13.6°F-10.2°C 55% Calm Calm 2.0 mph3.2 kmh 29.49 in998.6 mb 0.00 in0.0 mm 0.00 in0.0 mm 0.00 in0.0 mm
10:06 AM 27.5°F-2.5°C 13.3°F-10.4°C 55% Calm Calm 2.0 mph3.2 kmh 29.49 in998.6 mb 0.00 in0.0 mm 0.00 in0.0 mm 0.00 in0.0 mm
10:21 AM 27.9°F-2.3°C 13.6°F-10.2°C 55% 0.6 mph N1.0 kmh N 2.0 mph3.2 kmh 29.49 in998.6 mb 0.00 in0.0 mm 0.00 in0.0 mm 0.00 in0.0 mm
10:36 AM 27.7°F-2.4°C 13.0°F-10.6°C 54% 2.0 mph N3.2 kmh N 4.8 mph7.7 kmh 29.49 in998.6 mb 0.00 in0.0 mm 0.00 in0.0 mm 0.00 in0.0 mm
10:51 AM 27.7°F-2.4°C 13.0°F-10.6°C 54% 0.6 mph N1.0 kmh N 3.4 mph5.5 kmh 29.49 in998.6 mb 0.00 in0.0 mm 0.00 in0.0 mm 0.00 in0.0 mm
11:06 AM 27.9°F-2.3°C 13.2°F-10.4°C 54% 1.4 mph N2.3 kmh N 4.0 mph6.4 kmh 29.49 in998.6 mb 0.00 in0.0 mm 0.00 in0.0 mm 0.00 in0.0 mm
11:21 AM 27.9°F-2.3°C 13.2°F-10.4°C 54% 2.0 mph N3.2 kmh N 3.4 mph5.5 kmh 29.48 in998.3 mb 0.00 in0.0 mm 0.00 in0.0 mm 0.00 in0.0 mm
11:36 AM 27.9°F-2.3°C 13.2°F-10.4°C 54% 1.4 mph N2.3 kmh N 3.4 mph5.5 kmh 29.48 in998.3 mb 0.00 in0.0 mm 0.00 in0.0 mm 0.00 in0.0 mm
11:51 AM 27.9°F-2.3°C 13.2°F-10.4°C 54% 0.6 mph N1.0 kmh N 2.0 mph3.2 kmh 29.47 in998.0 mb 0.00 in0.0 mm 0.00 in0.0 mm 0.00 in0.0 mm
12:06 PM 28.0°F-2.2°C 13.4°F-10.3°C 54% 2.8 mph N4.5 kmh N 5.4 mph8.7 kmh 29.47 in998.0 mb 0.00 in0.0 mm 0.00 in0.0 mm 0.00 in0.0 mm
12:21 PM 27.7°F-2.4°C 12.6°F-10.8°C 53% Calm Calm 2.0 mph3.2 kmh 29.47 in998.0 mb 0.00 in0.0 mm 0.00 in0.0 mm 0.00 in0.0 mm
12:36 PM 28.2°F-2.1°C 13.1°F-10.5°C 53% 0.6 mph N1.0 kmh N 2.8 mph4.5 kmh 29.46 in997.6 mb 0.00 in0.0 mm 0.00 in0.0 mm 0.00 in0.0 mm
12:51 PM 28.2°F-2.1°C 12.7°F-10.7°C 52% Calm Calm 1.4 mph2.3 kmh 29.46 in997.6 mb 0.00 in0.0 mm 0.00 in0.0 mm 0.00 in0.0 mm
01:06 PM 28.2°F-2.1°C 12.7°F-10.7°C 52% Calm Calm 2.0 mph3.2 kmh 29.45 in997.3 mb 0.00 in0.0 mm 0.00 in0.0 mm 0.00 in0.0 mm
01:21 PM 28.4°F-2.0°C 12.4°F-10.9°C 51% Calm Calm 2.0 mph3.2 kmh 29.45 in997.3 mb 0.00 in0.0 mm 0.00 in0.0 mm 0.00 in0.0 mm
01:36 PM 28.4°F-2.0°C 11.5°F-11.4°C 49% 1.4 mph N2.3 kmh N 3.4 mph5.5 kmh 29.44 in997.0 mb 0.00 in0.0 mm 0.00 in0.0 mm 0.00 in0.0 mm
01:51 PM 27.9°F-2.3°C 10.5°F-11.9°C 48% 2.8 mph N4.5 kmh N 6.2 mph10.0 kmh 29.44 in997.0 mb 0.00 in0.0 mm 0.00 in0.0 mm 0.00 in0.0 mm
02:06 PM 27.9°F-2.3°C 10.0°F-12.2°C 47% 2.0 mph N3.2 kmh N 4.0 mph6.4 kmh 29.44 in997.0 mb 0.00 in0.0 mm 0.00 in0.0 mm 0.00 in0.0 mm
02:21 PM 28.0°F-2.2°C 10.2°F-12.1°C 47% 0.6 mph N1.0 kmh N 2.8 mph4.5 kmh 29.44 in997.0 mb 0.00 in0.0 mm 0.00 in0.0 mm 0.00 in0.0 mm
02:36 PM 27.9°F-2.3°C 9.6°F-12.4°C 46% Calm Calm 1.4 mph2.3 kmh 29.44 in997.0 mb 0.00 in0.0 mm 0.00 in0.0 mm 0.00 in0.0 mm
02:51 PM 28.0°F-2.2°C 9.7°F-12.4°C 46% 0.6 mph N1.0 kmh N 2.8 mph4.5 kmh 29.43 in996.6 mb 0.00 in0.0 mm 0.00 in0.0 mm 0.00 in0.0 mm
03:06 PM 28.0°F-2.2°C 9.2°F-12.7°C 45% Calm Calm 1.4 mph2.3 kmh 29.43 in996.6 mb 0.00 in0.0 mm 0.00 in0.0 mm 0.00 in0.0 mm
03:21 PM 27.9°F-2.3°C 9.1°F-12.7°C 45% 0.6 mph N1.0 kmh N 1.4 mph2.3 kmh 29.43 in996.6 mb 0.00 in0.0 mm 0.00 in0.0 mm 0.00 in0.0 mm
03:36 PM 27.9°F-2.3°C 9.1°F-12.7°C 45% 1.4 mph N2.3 kmh N 3.4 mph5.5 kmh 29.42 in996.3 mb 0.00 in0.0 mm 0.00 in0.0 mm 0.00 in0.0 mm
03:51 PM 27.7°F-2.4°C 8.9°F-12.8°C 45% 0.6 mph N1.0 kmh N 2.8 mph4.5 kmh 29.43 in996.6 mb 0.00 in0.0 mm 0.00 in0.0 mm 0.00 in0.0 mm
04:06 PM 27.5°F-2.5°C 8.7°F-12.9°C 45% 2.0 mph N3.2 kmh N 4.8 mph7.7 kmh 29.42 in996.3 mb 0.00 in0.0 mm 0.00 in0.0 mm 0.00 in0.0 mm
04:21 PM 27.3°F-2.6°C 8.6°F-13.0°C 45% 2.0 mph N3.2 kmh N 5.4 mph8.7 kmh 29.42 in996.3 mb 0.00 in0.0 mm 0.00 in0.0 mm 0.00 in0.0 mm
04:36 PM 27.5°F-2.5°C 8.7°F-12.9°C 45% 0.6 mph N1.0 kmh N 2.0 mph3.2 kmh 29.42 in996.3 mb 0.00 in0.0 mm 0.00 in0.0 mm 0.00 in0.0 mm
04:51 PM 27.3°F-2.6°C 9.1°F-12.7°C 46% 0.6 mph N1.0 kmh N 2.0 mph3.2 kmh 29.42 in996.3 mb 0.00 in0.0 mm 0.00 in0.0 mm 0.00 in0.0 mm
05:06 PM 27.1°F-2.7°C 8.9°F-12.8°C 46% 1.4 mph N2.3 kmh N 6.2 mph10.0 kmh 29.43 in996.6 mb 0.00 in0.0 mm 0.00 in0.0 mm 0.00 in0.0 mm
05:21 PM 27.1°F-2.7°C 8.9°F-12.8°C 46% 1.4 mph N2.3 kmh N 3.4 mph5.5 kmh 29.43 in996.6 mb 0.00 in0.0 mm 0.00 in0.0 mm 0.00 in0.0 mm
05:36 PM 27.1°F-2.7°C 9.4°F-12.6°C 47% Calm Calm 2.0 mph3.2 kmh 29.43 in996.6 mb 0.00 in0.0 mm 0.00 in0.0 mm 0.00 in0.0 mm
05:51 PM 27.1°F-2.7°C 9.4°F-12.6°C 47% 2.8 mph N4.5 kmh N 6.2 mph10.0 kmh 29.43 in996.6 mb 0.00 in0.0 mm 0.00 in0.0 mm 0.00 in0.0 mm
06:06 PM 27.1°F-2.7°C 9.4°F-12.6°C 47% 2.0 mph N3.2 kmh N 4.8 mph7.7 kmh 29.43 in996.6 mb 0.00 in0.0 mm 0.00 in0.0 mm 0.00 in0.0 mm
06:21 PM 27.3°F-2.6°C 10.0°F-12.2°C 48% 2.0 mph N3.2 kmh N 4.0 mph6.4 kmh 29.43 in996.6 mb 0.00 in0.0 mm 0.00 in0.0 mm 0.00 in0.0 mm
06:36 PM 27.3°F-2.6°C 10.5°F-11.9°C 49% 1.4 mph N2.3 kmh N 4.0 mph6.4 kmh 29.43 in996.6 mb 0.00 in0.0 mm 0.00 in0.0 mm 0.00 in0.0 mm
06:51 PM 27.3°F-2.6°C 10.5°F-11.9°C 49% 0.6 mph N1.0 kmh N 2.0 mph3.2 kmh 29.43 in996.6 mb 0.00 in0.0 mm 0.00 in0.0 mm 0.00 in0.0 mm
07:06 PM 27.1°F-2.7°C 10.3°F-12.1°C 49% 1.4 mph N2.3 kmh N 4.0 mph6.4 kmh 29.43 in996.6 mb 0.00 in0.0 mm 0.00 in0.0 mm 0.00 in0.0 mm
07:21 PM 27.3°F-2.6°C 10.9°F-11.7°C 50% 1.4 mph N2.3 kmh N 2.8 mph4.5 kmh 29.43 in996.6 mb 0.00 in0.0 mm 0.00 in0.0 mm 0.00 in0.0 mm
07:36 PM 27.0°F-2.8°C 10.6°F-11.9°C 50% Calm Calm 2.0 mph3.2 kmh 29.43 in996.6 mb 0.00 in0.0 mm 0.00 in0.0 mm 0.00 in0.0 mm
07:51 PM 27.0°F-2.8°C 10.6°F-11.9°C 50% 1.4 mph N2.3 kmh N 3.4 mph5.5 kmh 29.43 in996.6 mb 0.00 in0.0 mm 0.00 in0.0 mm 0.00 in0.0 mm
08:06 PM 27.1°F-2.7°C 11.2°F-11.6°C 51% Calm Calm 3.4 mph5.5 kmh 29.43 in996.6 mb 0.00 in0.0 mm 0.00 in0.0 mm 0.00 in0.0 mm
08:21 PM 27.1°F-2.7°C 11.2°F-11.6°C 51% Calm Calm 2.8 mph4.5 kmh 29.42 in996.3 mb 0.00 in0.0 mm 0.00 in0.0 mm 0.00 in0.0 mm
08:36 PM 27.1°F-2.7°C 11.7°F-11.3°C 52% Calm Calm 1.4 mph2.3 kmh 29.42 in996.3 mb 0.00 in0.0 mm 0.00 in0.0 mm 0.00 in0.0 mm
08:51 PM 27.3°F-2.6°C 11.8°F-11.2°C 52% 0.6 mph N1.0 kmh N 2.8 mph4.5 kmh 29.42 in996.3 mb 0.00 in0.0 mm 0.00 in0.0 mm 0.00 in0.0 mm
09:06 PM 27.1°F-2.7°C 11.7°F-11.3°C 52% Calm Calm 1.4 mph2.3 kmh 29.42 in996.3 mb 0.00 in0.0 mm 0.00 in0.0 mm 0.00 in0.0 mm
09:21 PM 27.1°F-2.7°C 12.1°F-11.1°C 53% Calm Calm 2.0 mph3.2 kmh 29.42 in996.3 mb 0.00 in0.0 mm 0.00 in0.0 mm 0.00 in0.0 mm
09:36 PM 27.3°F-2.6°C 12.3°F-10.9°C 53% Calm Calm 0.6 mph1.0 kmh 29.41 in995.9 mb 0.00 in0.0 mm 0.00 in0.0 mm 0.00 in0.0 mm
09:51 PM 27.5°F-2.5°C 12.9°F-10.6°C 54% Calm Calm 0.6 mph1.0 kmh 29.40 in995.6 mb 0.00 in0.0 mm 0.00 in0.0 mm 0.00 in0.0 mm
10:06 PM 27.3°F-2.6°C 12.7°F-10.7°C 54% Calm Calm 0.6 mph1.0 kmh 29.40 in995.6 mb 0.00 in0.0 mm 0.00 in0.0 mm 0.00 in0.0 mm
10:21 PM 27.1°F-2.7°C 12.5°F-10.8°C 54% 0.6 mph N1.0 kmh N 4.0 mph6.4 kmh 29.39 in995.3 mb 0.00 in0.0 mm 0.00 in0.0 mm 0.00 in0.0 mm
10:36 PM 27.1°F-2.7°C 12.9°F-10.6°C 55% Calm Calm 2.0 mph3.2 kmh 29.39 in995.3 mb 0.00 in0.0 mm 0.00 in0.0 mm 0.00 in0.0 mm
10:51 PM 27.1°F-2.7°C 12.9°F-10.6°C 55% Calm Calm 1.4 mph2.3 kmh 29.39 in995.3 mb 0.00 in0.0 mm 0.00 in0.0 mm 0.00 in0.0 mm
11:06 PM 27.1°F-2.7°C 13.4°F-10.3°C 56% 0.6 mph N1.0 kmh N 2.8 mph4.5 kmh 29.39 in995.3 mb 0.00 in0.0 mm 0.00 in0.0 mm 0.00 in0.0 mm
11:21 PM 27.0°F-2.8°C 13.2°F-10.4°C 56% 1.4 mph N2.3 kmh N 4.0 mph6.4 kmh 29.40 in995.6 mb 0.00 in0.0 mm 0.00 in0.0 mm 0.00 in0.0 mm
11:36 PM 26.8°F-2.9°C 13.4°F-10.3°C 57% 0.6 mph N1.0 kmh N 2.8 mph4.5 kmh 29.39 in995.3 mb 0.00 in0.0 mm 0.00 in0.0 mm 0.00 in0.0 mm
11:51 PM 26.8°F-2.9°C 13.4°F-10.3°C 57% 0.6 mph N1.0 kmh N 4.0 mph6.4 kmh 29.39 in995.3 mb 0.00 in0.0 mm 0.00 in0.0 mm 0.00 in0.0 mm